createdAt,value
2022-11-28T00:01:38.876Z,76.40
2022-11-28T00:04:07.915Z,76.40
2022-11-28T00:06:39.043Z,76.50
2022-11-28T00:09:09.537Z,76.60
2022-11-28T00:11:37.687Z,76.70
2022-11-28T00:14:05.906Z,76.70
2022-11-28T00:16:34.428Z,76.70
2022-11-28T00:19:03.479Z,76.70
2022-11-28T00:21:32.068Z,76.80
2022-11-28T00:24:00.916Z,76.80
2022-11-28T00:26:32.757Z,76.90
2022-11-28T00:29:01.700Z,76.90
2022-11-28T00:31:32.939Z,76.90
2022-11-28T00:34:02.144Z,77.00
2022-11-28T00:36:31.491Z,77.10
2022-11-28T00:38:59.675Z,77.00
2022-11-28T00:41:31.430Z,77.10
2022-11-28T00:43:59.696Z,77.10
2022-11-28T00:46:27.978Z,77.00
2022-11-28T00:48:56.187Z,77.00
2022-11-28T00:51:26.782Z,76.90
2022-11-28T00:53:57.522Z,77.10
2022-11-28T00:56:28.073Z,77.10
2022-11-28T00:58:58.039Z,77.10
2022-11-28T01:01:28.807Z,77.10
2022-11-28T01:03:59.441Z,77.10
2022-11-28T01:06:29.672Z,77.00
2022-11-28T01:08:59.374Z,77.10
2022-11-28T01:11:27.957Z,77.20
2022-11-28T01:13:58.595Z,77.30
2022-11-28T01:16:26.867Z,77.20
2022-11-28T01:18:55.177Z,77.30
2022-11-28T01:21:23.361Z,77.40
2022-11-28T01:23:51.798Z,77.30
2022-11-28T01:26:22.062Z,77.40
2022-11-28T01:28:50.517Z,77.50
2022-11-28T01:31:23.552Z,77.40
2022-11-28T01:33:52.692Z,77.50
2022-11-28T01:36:21.842Z,77.50
2022-11-28T01:38:51.610Z,77.40
2022-11-28T01:41:22.630Z,77.40
2022-11-28T01:44:03.173Z,77.50
2022-11-28T01:46:33.393Z,77.30
2022-11-28T01:49:08.418Z,77.30
2022-11-28T01:51:37.246Z,77.40
2022-11-28T01:54:05.975Z,77.30
2022-11-28T01:56:42.884Z,77.30
2022-11-28T01:59:14.559Z,77.40
2022-11-28T02:01:44.900Z,77.30
2022-11-28T02:04:14.936Z,77.40
2022-11-28T02:06:43.744Z,77.50
2022-11-28T02:09:13.371Z,77.30
2022-11-28T02:12:04.392Z,77.50
2022-11-28T02:15:01.910Z,77.60
2022-11-28T02:17:42.343Z,77.60
2022-11-28T02:20:48.570Z,77.40
2022-11-28T02:23:23.853Z,77.30
2022-11-28T02:26:32.207Z,77.60
2022-11-28T02:29:42.182Z,77.60
2022-11-28T02:32:24.901Z,77.20
2022-11-28T02:34:59.010Z,77.50
2022-11-28T02:37:33.561Z,77.40
2022-11-28T02:40:10.312Z,77.40
2022-11-28T02:42:48.971Z,77.20
2022-11-28T02:45:25.305Z,77.50
2022-11-28T02:48:00.654Z,77.30
2022-11-28T02:50:35.404Z,77.30
2022-11-28T02:53:09.183Z,77.30
2022-11-28T02:55:40.589Z,77.50
2022-11-28T02:58:08.858Z,77.40
2022-11-28T03:00:38.752Z,77.50
2022-11-28T03:03:46.269Z,77.30
2022-11-28T03:06:26.341Z,77.30
2022-11-28T03:09:20.171Z,77.20
2022-11-28T03:11:56.986Z,77.20
2022-11-28T03:14:33.504Z,77.30
2022-11-28T03:17:11.513Z,77.20
2022-11-28T03:19:43.628Z,77.10
2022-11-28T03:22:21.815Z,77.00
2022-11-28T03:24:55.351Z,76.80
2022-11-28T03:27:28.647Z,76.80
2022-11-28T03:30:02.472Z,76.50
2022-11-28T03:32:33.942Z,76.80
2022-11-28T03:35:06.208Z,76.80
2022-11-28T03:37:41.148Z,76.80
2022-11-28T03:40:15.078Z,76.80
2022-11-28T03:42:46.674Z,76.80
2022-11-28T03:45:19.975Z,76.80
2022-11-28T03:47:53.730Z,76.90
2022-11-28T03:50:24.793Z,76.70
2022-11-28T03:52:59.309Z,76.80
2022-11-28T03:55:34.103Z,76.80
2022-11-28T03:58:09.062Z,76.60
2022-11-28T04:00:45.311Z,76.80
2022-11-28T04:03:23.518Z,77.00
2022-11-28T04:05:59.275Z,76.90
2022-11-28T04:08:33.402Z,76.80
2022-11-28T04:11:08.459Z,77.10
2022-11-28T04:13:42.171Z,77.10
2022-11-28T04:16:18.965Z,77.10
2022-11-28T04:18:55.815Z,77.10
2022-11-28T04:21:28.372Z,77.10
2022-11-28T04:24:02.786Z,76.80
2022-11-28T04:26:36.378Z,76.90
2022-11-28T04:29:08.166Z,76.80
2022-11-28T04:31:37.901Z,76.90
2022-11-28T04:34:10.145Z,76.70
2022-11-28T04:36:41.168Z,76.70
2022-11-28T04:39:16.068Z,76.90
2022-11-28T04:41:49.606Z,76.70
2022-11-28T04:44:23.091Z,76.60
2022-11-28T04:46:55.187Z,76.70
2022-11-28T04:49:24.560Z,76.50
2022-11-28T04:51:59.625Z,76.70
2022-11-28T04:54:34.658Z,76.80
2022-11-28T04:57:08.821Z,76.50
2022-11-28T04:59:38.188Z,76.50
2022-11-28T05:02:07.642Z,76.60
2022-11-28T05:04:37.885Z,76.30
2022-11-28T05:07:08.767Z,76.30
2022-11-28T05:09:38.513Z,76.10
2022-11-28T05:12:07.342Z,75.80
2022-11-28T05:14:35.504Z,75.90
2022-11-28T05:17:03.650Z,75.70
2022-11-28T05:19:31.777Z,75.80
2022-11-28T05:21:59.967Z,75.70
2022-11-28T05:24:32.072Z,75.80
2022-11-28T05:27:01.927Z,75.70
2022-11-28T05:29:30.136Z,75.50
2022-11-28T05:31:58.345Z,75.30
2022-11-28T05:34:26.776Z,75.40
2022-11-28T05:36:54.906Z,75.30
2022-11-28T05:39:23.089Z,75.20
2022-11-28T05:41:51.234Z,75.00
2022-11-28T05:44:24.097Z,74.80
2022-11-28T05:46:54.919Z,74.90
2022-11-28T05:49:23.948Z,74.90
2022-11-28T05:51:52.053Z,74.60
2022-11-28T05:54:20.134Z,74.50
2022-11-28T05:56:48.346Z,74.50
2022-11-28T05:59:16.484Z,74.20
2022-11-28T06:01:46.047Z,74.30
2022-11-28T06:04:14.221Z,74.00
2022-11-28T06:06:42.371Z,73.80
2022-11-28T06:09:10.497Z,74.10
2022-11-28T06:11:38.616Z,74.00
2022-11-28T06:14:06.714Z,73.90
2022-11-28T06:16:34.925Z,73.80
2022-11-28T06:19:06.782Z,73.80
2022-11-28T06:21:35.214Z,73.80
2022-11-28T06:24:03.346Z,73.70
2022-11-28T06:26:31.562Z,73.80
2022-11-28T06:28:59.712Z,73.60
2022-11-28T06:31:30.050Z,73.40
2022-11-28T06:33:58.533Z,73.30
2022-11-28T06:36:28.729Z,73.20
2022-11-28T06:38:57.591Z,73.10
2022-11-28T06:41:25.731Z,73.10
2022-11-28T06:43:53.845Z,73.10
2022-11-28T06:46:23.018Z,73.10
2022-11-28T06:48:54.305Z,73.10
2022-11-28T06:51:22.710Z,72.90
2022-11-28T06:53:52.446Z,72.70
2022-11-28T06:56:21.630Z,72.60
2022-11-28T06:58:55.598Z,72.60
2022-11-28T07:01:26.554Z,72.60
2022-11-28T07:03:55.538Z,72.60
2022-11-28T07:06:24.989Z,72.60
2022-11-28T07:08:54.718Z,72.60
2022-11-28T07:11:25.107Z,72.50
2022-11-28T07:13:55.403Z,72.60
2022-11-28T07:16:25.199Z,72.50
2022-11-28T07:18:54.445Z,72.50
2022-11-28T07:21:23.474Z,72.30
2022-11-28T07:23:52.058Z,72.50
2022-11-28T07:26:22.859Z,72.40
2022-11-28T07:28:51.836Z,72.50
2022-11-28T07:31:21.877Z,72.40
2022-11-28T07:33:52.068Z,72.50
2022-11-28T07:36:22.863Z,72.50
2022-11-28T07:38:52.649Z,72.50
2022-11-28T07:41:26.260Z,72.30
2022-11-28T07:43:57.469Z,72.40
2022-11-28T07:46:26.608Z,72.50
2022-11-28T07:48:54.836Z,72.40
2022-11-28T07:51:24.933Z,72.50
2022-11-28T07:53:53.692Z,72.50
2022-11-28T07:56:25.525Z,72.40
2022-11-28T07:58:53.854Z,72.20
2022-11-28T08:01:23.643Z,72.00
2022-11-28T08:03:54.137Z,71.90
2022-11-28T08:06:25.539Z,71.90
2022-11-28T08:08:54.796Z,72.00
2022-11-28T08:11:26.014Z,71.80
2022-11-28T08:13:56.550Z,71.60
2022-11-28T08:16:28.425Z,71.70
2022-11-28T08:18:57.473Z,71.70
2022-11-28T08:21:27.448Z,71.70
2022-11-28T08:23:56.932Z,71.60
2022-11-28T08:26:30.664Z,71.60
2022-11-28T08:28:59.804Z,71.70
2022-11-28T08:31:31.409Z,71.50
2022-11-28T08:34:01.894Z,71.40
2022-11-28T08:36:30.459Z,71.40
2022-11-28T08:39:22.424Z,71.30
2022-11-28T08:41:49.984Z,71.30
2022-11-28T08:44:18.162Z,70.90
2022-11-28T08:46:46.310Z,70.80
2022-11-28T08:49:14.492Z,70.70
2022-11-28T08:51:43.036Z,70.60
2022-11-28T08:54:11.205Z,70.40
2022-11-28T08:56:39.363Z,70.20
2022-11-28T08:59:08.893Z,70.30
2022-11-28T09:01:37.271Z,70.00
2022-11-28T09:04:05.908Z,70.20
2022-11-28T09:06:34.195Z,69.90
2022-11-28T09:09:05.636Z,69.80
2022-11-28T09:11:34.297Z,69.70
2022-11-28T09:14:02.467Z,69.60
2022-11-28T09:16:32.210Z,69.50
2022-11-28T09:19:00.404Z,69.40
2022-11-28T09:21:29.053Z,69.20
2022-11-28T09:23:57.831Z,69.10
2022-11-28T09:26:26.871Z,69.30
2022-11-28T09:28:55.482Z,69.10
2022-11-28T09:31:24.162Z,68.90
2022-11-28T09:33:54.560Z,68.70
2022-11-28T09:36:24.861Z,68.70
2022-11-28T09:38:53.239Z,68.60
2022-11-28T09:41:53.968Z,68.30
2022-11-28T09:44:26.080Z,68.00
2022-11-28T09:46:58.105Z,67.60
2022-11-28T09:49:39.909Z,67.40
2022-11-28T09:52:22.143Z,67.10
2022-11-28T09:54:58.626Z,67.00
2022-11-28T09:57:34.339Z,66.90
2022-11-28T10:00:03.140Z,66.70
2022-11-28T10:02:36.954Z,66.80
2022-11-28T10:05:16.442Z,66.70
2022-11-28T10:07:55.538Z,66.80
2022-11-28T10:10:30.246Z,66.70
2022-11-28T10:13:04.466Z,66.70
2022-11-28T10:15:41.172Z,66.70
2022-11-28T10:18:23.835Z,66.80
2022-11-28T10:20:58.247Z,66.80
2022-11-28T10:23:31.090Z,66.90
2022-11-28T10:26:03.653Z,67.10
2022-11-28T10:28:35.863Z,67.30
2022-11-28T10:31:09.143Z,67.30
2022-11-28T10:33:44.917Z,67.60
2022-11-28T10:36:21.157Z,67.60
2022-11-28T10:38:49.394Z,67.80
2022-11-28T10:41:25.354Z,68.00
2022-11-28T10:44:00.549Z,68.20
2022-11-28T10:46:49.271Z,68.20
2022-11-28T10:49:30.196Z,68.90
2022-11-28T10:52:09.870Z,68.80
2022-11-28T10:55:04.517Z,69.10
2022-11-28T10:57:40.934Z,69.40
2022-11-28T11:00:13.492Z,69.70
2022-11-28T11:02:45.458Z,69.80
2022-11-28T11:05:16.454Z,69.90
2022-11-28T11:07:50.541Z,70.20
2022-11-28T11:10:25.255Z,69.90
2022-11-28T11:13:04.299Z,69.90
2022-11-28T11:15:33.868Z,70.00
2022-11-28T11:18:05.807Z,70.00
2022-11-28T11:20:38.384Z,70.10
2022-11-28T11:23:17.648Z,70.10
2022-11-28T11:25:54.585Z,70.00
2022-11-28T11:28:42.695Z,69.90
2022-11-28T11:31:21.862Z,70.00
2022-11-28T11:33:54.325Z,69.90
2022-11-28T11:36:26.735Z,69.90
2022-11-28T11:39:09.739Z,69.70
2022-11-28T11:41:40.825Z,69.60
2022-11-28T11:44:51.364Z,69.60
2022-11-28T11:47:19.991Z,69.70
2022-11-28T11:49:49.875Z,69.80
2022-11-28T11:52:25.191Z,69.80
2022-11-28T11:55:04.057Z,69.70
2022-11-28T11:57:37.855Z,69.70
2022-11-28T12:00:12.556Z,69.90
2022-11-28T12:02:45.887Z,70.00
2022-11-28T12:05:16.590Z,70.00
2022-11-28T12:07:56.855Z,70.10
2022-11-28T12:10:30.850Z,70.10
2022-11-28T12:12:59.206Z,70.20
2022-11-28T12:15:41.401Z,70.40
2022-11-28T12:18:20.823Z,70.40
2022-11-28T12:21:03.312Z,70.50
2022-11-28T12:23:45.009Z,70.60
2022-11-28T12:26:21.308Z,70.80
2022-11-28T12:29:03.030Z,70.80
2022-11-28T12:31:44.527Z,71.10
2022-11-28T12:34:25.235Z,71.00
2022-11-28T12:37:04.152Z,71.40
2022-11-28T12:39:46.367Z,71.40
2022-11-28T12:42:41.279Z,71.40
2022-11-28T12:45:23.438Z,71.40
2022-11-28T12:48:01.736Z,71.80
2022-11-28T12:50:34.902Z,71.80
2022-11-28T12:53:23.748Z,72.10
2022-11-28T12:56:00.106Z,72.30
2022-11-28T12:58:34.887Z,72.20
2022-11-28T13:01:15.499Z,72.20
2022-11-28T13:04:01.644Z,72.00
2022-11-28T13:06:39.098Z,72.10
2022-11-28T13:09:29.111Z,72.50
2022-11-28T13:12:20.137Z,72.50
2022-11-28T13:14:55.698Z,72.50
2022-11-28T13:17:39.425Z,72.80
2022-11-28T13:20:18.453Z,72.80
2022-11-28T13:22:59.270Z,72.90
2022-11-28T13:25:37.030Z,73.00
2022-11-28T13:28:10.861Z,73.30
2022-11-28T13:30:44.662Z,73.50
2022-11-28T13:33:40.123Z,73.70
2022-11-28T13:38:35.053Z,73.80
2022-11-28T13:39:13.420Z,73.90
2022-11-28T13:42:16.246Z,74.10
2022-11-28T13:44:43.137Z,74.30
2022-11-28T13:47:31.709Z,74.50
2022-11-28T13:50:32.883Z,74.70
2022-11-28T13:53:02.172Z,74.90
2022-11-28T13:55:46.711Z,75.20
2022-11-28T13:58:26.313Z,75.40
2022-11-28T14:01:12.332Z,75.50
2022-11-28T14:03:49.259Z,75.60
2022-11-28T14:06:25.020Z,75.70
2022-11-28T14:09:05.818Z,75.90
2022-11-28T14:12:07.827Z,76.00
2022-11-28T14:15:06.503Z,76.30
2022-11-28T14:17:57.911Z,76.40
2022-11-28T14:20:37.317Z,76.40
2022-11-28T14:23:21.453Z,76.70
2022-11-28T14:25:52.514Z,76.80
2022-11-28T14:28:25.673Z,76.80
2022-11-28T14:31:01.753Z,77.10
2022-11-28T14:33:35.855Z,77.20
2022-11-28T14:36:25.027Z,77.50
2022-11-28T14:39:28.196Z,77.60
2022-11-28T14:45:44.804Z,77.60
2022-11-28T14:48:20.415Z,77.80
2022-11-28T14:50:59.303Z,77.90
2022-11-28T14:53:45.572Z,78.00
2022-11-28T14:56:27.483Z,78.10
2022-11-28T14:58:59.313Z,78.20
2022-11-28T15:01:44.843Z,78.20
2022-11-28T15:04:49.077Z,78.20
2022-11-28T15:07:28.374Z,78.30
2022-11-28T15:10:08.460Z,78.30
2022-11-28T15:12:47.565Z,78.30
2022-11-28T15:15:17.716Z,78.40
2022-11-28T15:17:51.387Z,78.50
2022-11-28T15:20:25.624Z,78.30
2022-11-28T15:22:54.004Z,78.80
2022-11-28T15:25:25.887Z,79.00
2022-11-28T15:27:55.528Z,78.90
2022-11-28T15:30:26.783Z,79.10
2022-11-28T15:33:05.350Z,79.20
2022-11-28T15:35:33.939Z,79.00
2022-11-28T15:38:02.067Z,78.90
2022-11-28T15:40:34.683Z,78.90
2022-11-28T15:43:09.519Z,78.50
2022-11-28T15:45:42.399Z,78.50
2022-11-28T15:48:27.685Z,78.20
2022-11-28T15:50:56.241Z,78.20
2022-11-28T15:53:24.412Z,78.40
2022-11-28T15:56:12.872Z,78.60
2022-11-28T15:58:41.737Z,78.50
2022-11-28T16:01:16.647Z,78.70
2022-11-28T16:03:51.548Z,78.90
2022-11-28T16:06:20.991Z,79.10
2022-11-28T16:08:53.307Z,79.20
2022-11-28T16:11:27.044Z,79.30
2022-11-28T16:13:57.357Z,79.40
2022-11-28T16:16:29.545Z,79.60
2022-11-28T16:19:00.441Z,79.60
2022-11-28T16:21:33.332Z,79.80
2022-11-28T16:24:01.899Z,79.90
2022-11-28T16:26:36.727Z,80.10
2022-11-28T16:29:14.763Z,80.20
2022-11-28T16:31:45.299Z,80.10
2022-11-28T16:34:14.960Z,80.20
2022-11-28T16:36:51.108Z,80.20
2022-11-28T16:39:19.636Z,80.30
2022-11-28T16:41:54.786Z,80.20
2022-11-28T16:44:26.260Z,80.20
2022-11-28T16:46:57.165Z,80.10
2022-11-28T16:49:37.557Z,80.30
2022-11-28T16:52:42.360Z,80.30
2022-11-28T16:55:44.368Z,80.30
2022-11-28T16:58:20.201Z,80.40
2022-11-28T17:01:00.576Z,80.30
2022-11-28T17:03:49.757Z,80.20
2022-11-28T17:06:21.570Z,80.20
2022-11-28T17:08:50.059Z,80.40
2022-11-28T17:11:21.311Z,80.40
2022-11-28T17:13:51.845Z,80.40
2022-11-28T17:16:21.833Z,80.40
2022-11-28T17:18:50.893Z,80.40
2022-11-28T17:21:26.637Z,80.50
2022-11-28T17:23:54.937Z,80.50
2022-11-28T17:26:23.125Z,80.60
2022-11-28T17:28:52.748Z,80.50
2022-11-28T17:31:21.897Z,80.60
2022-11-28T17:33:50.259Z,80.70
2022-11-28T17:36:18.472Z,80.80
2022-11-28T17:38:46.578Z,80.80
2022-11-28T17:41:15.734Z,80.80
2022-11-28T17:43:43.884Z,80.90
2022-11-28T17:46:13.778Z,81.00
2022-11-28T17:48:41.959Z,81.10
2022-11-28T17:51:11.851Z,81.20
2022-11-28T17:53:39.997Z,81.10
2022-11-28T17:56:10.602Z,81.10
2022-11-28T17:58:38.823Z,81.30
2022-11-28T18:01:11.200Z,81.30
2022-11-28T18:03:41.171Z,81.40
2022-11-28T18:06:16.606Z,81.30
2022-11-28T18:08:45.117Z,81.20
2022-11-28T18:11:14.635Z,81.30
2022-11-28T18:13:43.516Z,81.30
2022-11-28T18:16:12.218Z,81.30
2022-11-28T18:18:42.059Z,81.20
2022-11-28T18:21:11.143Z,81.20
2022-11-28T18:23:39.904Z,81.20
2022-11-28T18:26:09.647Z,81.30
2022-11-28T18:28:38.172Z,81.20
2022-11-28T18:31:11.593Z,81.20
2022-11-28T18:33:41.833Z,81.10
2022-11-28T18:36:11.692Z,81.20
2022-11-28T18:38:40.117Z,81.20
2022-11-28T18:41:10.137Z,81.30
2022-11-28T18:43:38.636Z,81.20
2022-11-28T18:46:07.887Z,81.20
2022-11-28T18:48:38.823Z,81.30
2022-11-28T18:51:14.093Z,81.30
2022-11-28T18:53:42.551Z,81.20
2022-11-28T18:56:12.201Z,81.00
2022-11-28T18:58:42.536Z,81.20
2022-11-28T19:01:12.219Z,81.50
2022-11-28T19:03:41.577Z,81.50
2022-11-28T19:06:13.124Z,81.50
2022-11-28T19:08:42.187Z,81.50
2022-11-28T19:11:14.398Z,81.60
2022-11-28T19:13:43.183Z,81.40
2022-11-28T19:16:13.004Z,81.50
2022-11-28T19:18:41.994Z,81.50
2022-11-28T19:21:13.795Z,81.20
2022-11-28T19:23:42.952Z,81.20
2022-11-28T19:26:13.116Z,80.70
2022-11-28T19:28:42.561Z,80.30
2022-11-28T19:31:15.357Z,80.00
2022-11-28T19:33:44.402Z,79.90
2022-11-28T19:36:16.415Z,79.70
2022-11-28T19:38:48.949Z,79.60
2022-11-28T19:41:20.136Z,79.40
2022-11-28T19:43:49.086Z,79.00
2022-11-28T19:46:17.671Z,79.20
2022-11-28T19:48:46.190Z,79.00
2022-11-28T19:51:16.237Z,79.00
2022-11-28T19:53:45.025Z,78.70
2022-11-28T19:56:15.761Z,78.70
2022-11-28T19:58:44.765Z,78.80
2022-11-28T20:01:15.086Z,78.90
2022-11-28T20:03:44.561Z,78.90
2022-11-28T20:06:16.385Z,78.80
2022-11-28T20:08:45.531Z,78.70
2022-11-28T20:11:15.887Z,78.90
2022-11-28T20:13:44.820Z,79.20
2022-11-28T20:16:14.887Z,79.70
2022-11-28T20:18:43.974Z,79.80
2022-11-28T20:21:14.840Z,80.00
2022-11-28T20:23:45.880Z,80.10
2022-11-28T20:26:15.158Z,80.10
2022-11-28T20:28:44.145Z,80.30
2022-11-28T20:31:19.004Z,80.30
2022-11-28T20:33:47.323Z,80.40
2022-11-28T20:36:17.290Z,80.30
2022-11-28T20:38:47.537Z,80.30
2022-11-28T20:41:26.624Z,80.40
2022-11-28T20:44:04.752Z,80.30
2022-11-28T20:46:39.891Z,80.20
2022-11-28T20:49:13.370Z,80.30
2022-11-28T20:51:56.237Z,80.20
2022-11-28T20:54:28.488Z,80.40
2022-11-28T20:59:57.603Z,80.50
2022-11-28T21:02:32.180Z,80.80
2022-11-28T21:05:00.507Z,80.80
2022-11-28T21:07:29.400Z,80.80
2022-11-28T21:10:00.594Z,80.90
2022-11-28T21:12:35.553Z,80.80
2022-11-28T21:15:07.260Z,81.10
2022-11-28T21:17:42.823Z,81.00
2022-11-28T21:20:11.787Z,81.10
2022-11-28T21:22:39.917Z,81.10
2022-11-28T21:25:09.759Z,81.20
2022-11-28T21:27:37.978Z,81.20
2022-11-28T21:30:07.429Z,81.30
2022-11-28T21:32:35.956Z,81.30
2022-11-28T21:35:04.819Z,81.20
2022-11-28T21:37:33.157Z,81.30
2022-11-28T21:40:01.370Z,81.30
2022-11-28T21:42:30.970Z,81.30
2022-11-28T21:44:59.135Z,81.20
2022-11-28T21:47:27.556Z,81.30
2022-11-28T21:49:55.934Z,81.20
2022-11-28T21:52:24.726Z,81.10
2022-11-28T21:54:53.162Z,81.30
2022-11-28T21:57:21.450Z,81.20
2022-11-28T21:59:51.078Z,81.40
2022-11-28T22:02:19.414Z,81.30
2022-11-28T22:04:47.763Z,81.40
2022-11-28T22:07:16.083Z,81.40
2022-11-28T22:09:44.548Z,81.40
2022-11-28T22:12:12.697Z,81.40
2022-11-28T22:14:40.981Z,81.30
2022-11-28T22:17:10.550Z,81.30
2022-11-28T22:19:38.771Z,81.20
2022-11-28T22:22:12.965Z,81.30
2022-11-28T22:24:41.493Z,81.40
2022-11-28T22:27:11.496Z,81.30
2022-11-28T22:29:39.796Z,81.40
2022-11-28T22:32:08.118Z,81.40
2022-11-28T22:34:40.027Z,81.40
2022-11-28T22:37:09.808Z,81.40
2022-11-28T22:39:38.998Z,81.20
2022-11-28T22:42:07.481Z,81.30
2022-11-28T22:44:35.740Z,81.30
2022-11-28T22:47:03.892Z,81.40
2022-11-28T22:49:32.117Z,81.40
2022-11-28T22:52:01.758Z,81.40
2022-11-28T22:54:29.883Z,81.50
2022-11-28T22:56:58.279Z,81.50
2022-11-28T22:59:26.399Z,81.50
2022-11-28T23:01:54.617Z,81.50
2022-11-28T23:04:25.953Z,81.50
2022-11-28T23:06:54.147Z,81.40
2022-11-28T23:09:24.004Z,81.50
2022-11-28T23:11:52.161Z,81.40
2022-11-28T23:14:20.357Z,81.40
2022-11-28T23:16:48.514Z,81.30
2022-11-28T23:19:18.172Z,81.20
2022-11-28T23:21:49.280Z,81.10
2022-11-28T23:24:19.204Z,81.00
2022-11-28T23:26:49.677Z,80.90
2022-11-28T23:29:18.603Z,80.80
2022-11-28T23:31:48.016Z,80.70
2022-11-28T23:34:16.607Z,80.60
2022-11-28T23:36:46.312Z,80.50
2022-11-28T23:39:16.540Z,80.40
2022-11-28T23:41:45.117Z,80.30
2022-11-28T23:44:15.889Z,80.30
2022-11-28T23:46:44.476Z,80.30
2022-11-28T23:49:13.152Z,80.20
2022-11-28T23:51:41.967Z,80.40
2022-11-28T23:54:11.895Z,80.40
2022-11-28T23:56:41.340Z,80.50
2022-11-28T23:59:11.666Z,80.60
